x

Ilm2 - 5 Miles Se Of Wrightsville Beach, Nc (41038) Weather Station

11:08 - Fri 29th Apr 2016 All times are EDT. -4 hours from GMT.

  • Wind
    9mph, 11mph gusts
  • Sea Temp 67°f
  • Air Temp 69°f
  • Sea Pressure 1015.8mb
  • Ilm2 - 5 Miles Se Of Wrightsville Beach, Nc
  • Ilm2 - 5 Miles Se Of Wrightsville Beach, Nc

More Historic Weather Station data

Upgrade to MSW Pro to gain access to the past 30 days of data for over 8000 Wavebouys and Weather Stations around the globe.

Join Pro

Comparision Forecast

View Surf forecast
   
ven. 04/29 11:08 9 11 mph 1015.8mb 67f 69f
10:08 9 13 mph 1015mb 67f 69f
9:08 7 9 mph 1014.2mb 67f 69f
8:08 4 9 mph 1014.1mb 67f 68f
7:08 4 7 mph 1013.4mb 67f 68f
6:08 7 9 mph 1012.8mb 67f 68f
5:08 4 7 mph 1012.7mb 67f 68f
4:08 11 22 mph 1012.3mb 67f 69f
3:08 9 13 mph 1012.1mb 67f 69f
2:08 11 16 mph 1012.4mb 67f 69f
1:08 13 18 mph 1012.3mb 67f 69f
12:08 11 16 mph 1013.6mb 67f 70f
jeu. 04/28 11:08 11 16 mph 1013.4mb 67f 69f
10:08 13 18 mph 1013.3mb 67f 69f
9:08 11 16 mph 1013.4mb 67f 69f
8:08 11 16 mph 1013.9mb 67f 69f
7:08 13 18 mph 1013.2mb 67f 69f
6:08 13 20 mph 1012.6mb 67f 70f
4:08 18 22 mph 1013.1mb 67f 70f
3:08 16 20 mph 1013.6mb 67f 70f
2:08 13 16 mph 1014.3mb 67f 69f
1:08 11 16 mph 1014.6mb 67f 69f
12:08 11 16 mph 1015.2mb 67f 70f
11:08 16 18 mph 1015.1mb 66f 70f
10:08 11 16 mph 1015.3mb 66f 70f
9:08 27
mph
1015.3mb 66f 69f
8:08 13 16 mph 1015.1mb 66f 68f
7:08 11 13 mph 1014.5mb 66f 68f
6:08 11 16 mph 1013.7mb 66f 68f
5:08 11 13 mph 1013.5mb 66f 68f
4:08 9 13 mph 1013.2mb 66f 68f
3:08 11 13 mph 1013.2mb 66f 68f
2:08 11 13 mph 1013.2mb 66f 68f
1:08 13 18 mph 1013.6mb 66f 69f
12:08 13 18 mph 1013.3mb 66f 69f
mer. 04/27 11:08 13 18 mph 1013.4mb 66f 69f
10:08 11 16 mph 1013.4mb 66f 68f
9:08 16 20 mph 1012.9mb 66f 69f
8:08 18 22 mph 1012.2mb 66f 69f
7:08 16 22 mph 1011.8mb 66f 70f
6:08 16 22 mph 1012.2mb 66f 70f
5:08 18 25 mph 1012mb 66f 70f
4:08 18 22 mph 1011.9mb 67f 70f
3:08 20 25 mph 1011.8mb 67f 69f
2:08 18 25 mph 1012.5mb 67f 69f
1:08 18 25 mph 1012.9mb 67f 69f
12:08 18 22 mph 1013.4mb 66f 70f
11:08 16 22 mph 1013.6mb 66f 69f
10:08 13 18 mph 1013.9mb 66f 69f
9:08 11 16 mph 1014mb 66f 68f
8:08 11 16 mph 1014.1mb 66f 68f
7:08 11 16 mph 1013.9mb 66f 68f
6:08 11 16 mph 1013.6mb 66f 68f
5:08 11 16 mph 1013mb 66f 68f
4:08 13 18 mph 1012.6mb 66f 68f
3:08 13 18 mph 1012.4mb 66f 68f
2:08 13 18 mph 1012.4mb 66f 68f
1:08 13 18 mph 1012.8mb 66f 68f
12:08 13 18 mph 1013.3mb 66f 68f
mar. 04/26 11:08 13 18 mph 1013.1mb 67f 68f
10:08 13 18 mph 1013.4mb 67f 68f
9:08 13 18 mph 1013.3mb 67f 68f
7:08 18 22 mph 1013.2mb 67f 69f
6:08 18 22 mph 1013.2mb 67f 69f
5:08 20 25 mph 1013.4mb 67f 70f
4:08 16 20 mph 1014.2mb 67f 69f
3:08 16 22 mph 1014.7mb 67f 69f
2:08 18 22 mph 1015.5mb 67f 70f
1:08 16 20 mph 1016.1mb 67f 70f
12:08 13 20 mph 1016.7mb 67f 69f
10:08 7 9 mph 1017.3mb 66f 69f
9:08 7 9 mph 1017.7mb 66f 68f
8:08 7 9 mph 1017.5mb 66f 67f
7:08 9 13 mph 1016.8mb 66f 67f
6:08 9 11 mph 1015.9mb 66f 67f
5:08 9 13 mph 1016mb 66f 67f
3:08 11 13 mph 1016.2mb 65f 67f
2:08 11 16 mph 1016.5mb 65f 67f
1:08 13 18 mph 1016.9mb 65f 67f
12:08 13 18 mph 1017.2mb 65f 67f
lun. 04/25 11:08 11 16 mph 1017.3mb 65f 67f
10:08 7 11 mph 1017.8mb 65f 67f
9:08 7 11 mph 1017.6mb 65f 67f
8:08 9 13 mph 1017.6mb 66f 67f
7:08 11 16 mph 1017.7mb 66f 68f
5:08 11 16 mph 1018.2mb 66f 68f